Time;durP1;ratioP1;P1;durP2;ratioP2;P2;SDS_P1;SDS_P2;PMS_P1;PMS_P2;Temp;Humidity;BMP_temperature;BMP_pressure;BME280_temperature;BME280_humidity;BME280_pressure;Samples;Min_cycle;Max_cycle;Signal;HPM_P1;HPM_P2
2021/05/26 00:00:27;;;;;;;1.98;1.17;;;10.90;82.70;;;;;;2098070;28;20447;-70
2021/05/26 00:01:27;;;;;;;3.08;1.08;;;10.90;82.20;;;;;;2098128;28;20388;-70
2021/05/26 00:02:28;;;;;;;1.67;1.10;;;10.80;81.30;;;;;;2080947;28;20028;-70
2021/05/26 00:03:28;;;;;;;2.08;1.17;;;10.90;81.90;;;;;;2080867;28;20021;-70
2021/05/26 00:04:29;;;;;;;1.20;1.10;;;10.90;82.00;;;;;;2089189;28;20025;-70
2021/05/26 00:05:31;;;;;;;3.25;1.20;;;10.80;82.10;;;;;;2098091;28;20483;-71
2021/05/26 00:06:31;;;;;;;1.92;1.20;;;10.80;82.20;;;;;;2097375;28;20023;-70
2021/05/26 00:07:32;;;;;;;2.38;1.17;;;10.80;82.30;;;;;;2087338;28;20028;-71
2021/05/26 00:08:35;;;;;;;2.30;1.13;;;10.80;82.70;;;;;;2089066;28;20096;-70
2021/05/26 00:09:35;;;;;;;2.60;1.08;;;10.80;82.50;;;;;;2089330;28;20082;-70
2021/05/26 00:10:36;;;;;;;1.67;1.10;;;10.80;82.20;;;;;;2097952;28;20020;-72
2021/05/26 00:11:37;;;;;;;2.25;1.10;;;10.80;82.60;;;;;;2097930;28;20025;-70
2021/05/26 00:12:37;;;;;;;2.42;1.30;;;10.80;82.90;;;;;;2098017;28;20055;-70
2021/05/26 00:13:38;;;;;;;4.18;1.40;;;10.80;82.60;;;;;;2098091;28;20028;-70
2021/05/26 00:14:40;;;;;;;4.38;1.20;;;10.80;82.40;;;;;;2097922;28;20024;-70
2021/05/26 00:15:40;;;;;;;2.50;1.17;;;10.80;82.10;;;;;;2098013;28;20020;-71
2021/05/26 00:16:41;;;;;;;2.83;1.10;;;10.80;82.50;;;;;;2097606;28;20104;-70
2021/05/26 00:17:41;;;;;;;3.78;1.10;;;10.80;82.60;;;;;;2097953;28;20491;-69
2021/05/26 00:18:42;;;;;;;3.60;1.25;;;10.80;82.40;;;;;;2089233;28;20040;-70
2021/05/26 00:19:44;;;;;;;2.67;1.20;;;10.80;82.80;;;;;;2089056;28;20032;-70
2021/05/26 00:20:46;;;;;;;5.20;1.30;;;10.80;82.30;;;;;;2097840;28;20041;-69
2021/05/26 00:21:46;;;;;;;1.95;0.98;;;10.80;82.20;;;;;;2097956;28;20024;-69
2021/05/26 00:22:47;;;;;;;2.30;1.10;;;10.80;82.30;;;;;;2097828;28;20029;-70
2021/05/26 00:23:48;;;;;;;2.50;1.20;;;10.80;82.70;;;;;;2097757;28;20480;-70
2021/05/26 00:24:48;;;;;;;1.98;1.20;;;10.80;82.70;;;;;;2097872;28;20115;-70
2021/05/26 00:25:49;;;;;;;4.65;1.40;;;10.80;82.80;;;;;;2097813;28;20028;-70
2021/05/26 00:26:50;;;;;;;2.13;1.10;;;10.80;81.20;;;;;;2097565;28;20521;-70
2021/05/26 00:27:57;;;;;;;2.35;1.20;;;10.80;81.70;;;;;;2097937;28;20480;-70
2021/05/26 00:28:58;;;;;;;2.15;1.15;;;10.80;81.80;;;;;;2098221;28;20029;-70
2021/05/26 00:29:59;;;;;;;5.35;1.40;;;10.80;81.80;;;;;;2098018;28;20025;-73
2021/05/26 00:31:00;;;;;;;3.38;1.30;;;10.80;82.30;;;;;;2098021;28;20085;-71
2021/05/26 00:32:01;;;;;;;4.03;1.20;;;10.80;82.10;;;;;;2097971;28;20021;-70
2021/05/26 00:33:02;;;;;;;1.75;1.17;;;10.80;82.70;;;;;;2089066;28;20022;-70
2021/05/26 00:34:03;;;;;;;4.15;1.27;;;10.80;82.50;;;;;;2089208;28;20044;-71
2021/05/26 00:35:04;;;;;;;2.85;0.95;;;10.80;82.20;;;;;;2097920;28;20499;-71
2021/05/26 00:36:05;;;;;;;3.97;1.10;;;10.90;81.00;;;;;;2097532;28;20032;-70
2021/05/26 00:37:06;;;;;;;1.92;1.20;;;10.80;81.10;;;;;;2095660;28;20490;-70
2021/05/26 00:38:06;;;;;;;3.13;1.10;;;10.80;81.20;;;;;;2098025;28;20036;-70
2021/05/26 00:39:07;;;;;;;2.03;1.13;;;10.80;82.00;;;;;;2097912;28;20103;-70
2021/05/26 00:40:08;;;;;;;2.95;1.30;;;10.80;81.40;;;;;;2097935;28;20650;-70
2021/05/26 00:41:10;;;;;;;1.70;1.15;;;10.80;81.80;;;;;;2089030;28;20037;-71
2021/05/26 00:42:11;;;;;;;2.80;1.48;;;10.80;81.30;;;;;;2089013;28;20660;-71
2021/05/26 00:43:11;;;;;;;3.47;1.27;;;10.80;81.90;;;;;;2097962;28;20498;-70
2021/05/26 00:44:16;;;;;;;2.25;1.10;;;10.80;81.80;;;;;;2097607;28;20056;-70
2021/05/26 00:45:17;;;;;;;4.05;1.25;;;10.80;82.10;;;;;;2097629;28;20499;-70
2021/05/26 00:46:18;;;;;;;2.72;1.20;;;10.80;81.90;;;;;;2088248;28;20029;-71
2021/05/26 00:47:38;;;;;;;3.20;1.20;;;10.80;82.10;;;;;;2095620;28;20025;-70
2021/05/26 00:48:39;;;;;;;2.35;1.15;;;10.80;81.40;;;;;;2105541;28;20028;-70
2021/05/26 00:49:40;;;;;;;2.47;1.25;;;10.80;81.20;;;;;;2102351;28;20387;-69
2021/05/26 00:50:42;;;;;;;4.10;1.30;;;10.80;81.50;;;;;;2089526;28;20039;-70
2021/05/26 00:51:43;;;;;;;6.75;1.50;;;10.80;82.10;;;;;;2080765;28;20401;-69
2021/05/26 00:52:44;;;;;;;2.33;1.20;;;10.90;81.70;;;;;;2089043;28;20025;-69
2021/05/26 00:53:46;;;;;;;3.88;1.20;;;10.80;82.50;;;;;;2097752;28;20082;-70
2021/05/26 00:54:47;;;;;;;4.68;1.08;;;10.80;81.30;;;;;;2097662;28;20550;-69
2021/05/26 00:55:48;;;;;;;3.75;1.50;;;10.80;80.80;;;;;;2088610;28;20071;-69
2021/05/26 00:56:49;;;;;;;2.50;1.20;;;10.90;81.00;;;;;;2088401;28;20029;-69
2021/05/26 00:57:51;;;;;;;5.38;1.40;;;10.80;80.40;;;;;;2097691;28;20089;-69
2021/05/26 00:58:55;;;;;;;2.88;1.20;;;10.80;80.60;;;;;;2097621;28;20752;-69
2021/05/26 00:59:56;;;;;;;2.17;1.13;;;10.90;80.70;;;;;;2097589;28;20035;-70
2021/05/26 01:00:57;;;;;;;2.25;1.20;;;10.90;81.10;;;;;;2097520;28;20391;-71
2021/05/26 01:01:57;;;;;;;4.47;1.30;;;10.90;81.20;;;;;;2088211;28;20025;-70
2021/05/26 01:02:58;;;;;;;4.40;1.20;;;10.80;81.20;;;;;;2088919;28;20029;-73
2021/05/26 01:04:02;;;;;;;3.45;1.30;;;10.80;80.80;;;;;;2098330;28;20060;-70
2021/05/26 01:05:07;;;;;;;2.95;1.23;;;10.80;81.00;;;;;;2098660;28;20025;-71
2021/05/26 01:06:08;;;;;;;3.40;1.30;;;10.90;80.90;;;;;;2089308;28;20108;-70
2021/05/26 01:07:10;;;;;;;2.88;1.20;;;10.90;80.90;;;;;;2086940;28;20029;-70
2021/05/26 01:08:13;;;;;;;3.70;1.30;;;10.90;81.50;;;;;;2088997;28;20028;-69
2021/05/26 01:09:14;;;;;;;1.90;1.10;;;10.90;81.50;;;;;;2089425;28;20028;-70
2021/05/26 01:10:17;;;;;;;2.65;1.10;;;10.90;80.90;;;;;;2089422;28;20067;-69
2021/05/26 01:11:36;;;;;;;4.53;1.30;;;10.90;81.30;;;;;;2088987;28;20025;-69
2021/05/26 01:12:37;;;;;;;3.17;1.20;;;10.90;81.80;;;;;;2088717;28;20472;-70
2021/05/26 01:13:38;;;;;;;2.10;1.27;;;10.90;81.80;;;;;;2088741;28;20504;-69
2021/05/26 01:14:40;;;;;;;3.60;1.30;;;10.90;81.60;;;;;;2080315;28;20120;-69
2021/05/26 01:15:44;;;;;;;4.70;1.60;;;10.90;81.80;;;;;;2080727;28;20738;-70
2021/05/26 01:16:46;;;;;;;2.10;1.38;;;10.90;82.20;;;;;;2080111;28;20045;-69
2021/05/26 01:17:47;;;;;;;4.40;1.20;;;10.90;81.90;;;;;;2088617;28;20040;-69
2021/05/26 01:18:50;;;;;;;1.58;1.20;;;10.90;82.30;;;;;;2088609;28;20117;-69
2021/05/26 01:19:53;;;;;;;2.75;1.38;;;10.90;81.80;;;;;;2088952;28;20500;-69
2021/05/26 01:20:57;;;;;;;3.50;1.40;;;10.80;82.00;;;;;;2088568;28;20119;-69
2021/05/26 01:21:58;;;;;;;4.18;1.25;;;10.80;82.10;;;;;;2089028;28;20029;-69
2021/05/26 01:23:00;;;;;;;3.15;1.27;;;10.80;81.90;;;;;;2097487;28;20028;-70
2021/05/26 01:24:03;;;;;;;3.85;1.40;;;10.80;82.30;;;;;;2088482;28;20116;-70
2021/05/26 01:25:08;;;;;;;4.03;1.30;;;10.70;82.30;;;;;;2080965;28;20037;-69
2021/05/26 01:26:09;;;;;;;4.20;1.40;;;10.70;81.80;;;;;;2080617;28;20030;-70
2021/05/26 01:27:13;;;;;;;4.35;1.45;;;10.70;81.80;;;;;;2080794;28;20033;-70
2021/05/26 01:28:14;;;;;;;2.92;1.20;;;10.70;82.10;;;;;;2088592;28;20396;-69
2021/05/26 01:29:16;;;;;;;2.58;1.17;;;10.70;81.90;;;;;;2097575;28;20056;-69
2021/05/26 01:30:18;;;;;;;2.45;1.30;;;10.60;82.00;;;;;;2088603;28;20021;-69
2021/05/26 01:31:18;;;;;;;2.88;1.33;;;10.60;82.30;;;;;;2088725;28;20220;-69
2021/05/26 01:32:23;;;;;;;4.35;1.40;;;10.60;82.40;;;;;;2088365;28;20037;-69
2021/05/26 01:33:24;;;;;;;3.90;1.50;;;10.50;82.60;;;;;;2088574;28;20024;-69
2021/05/26 01:34:25;;;;;;;2.80;1.40;;;10.50;83.10;;;;;;2097125;28;20044;-70
2021/05/26 01:35:26;;;;;;;3.65;1.40;;;10.50;82.40;;;;;;2097121;28;20032;-69
2021/05/26 01:36:26;;;;;;;2.53;1.30;;;10.50;82.60;;;;;;2096883;28;20046;-69
2021/05/26 01:37:27;;;;;;;4.57;1.30;;;10.60;82.40;;;;;;2094169;28;20028;-70
2021/05/26 01:38:29;;;;;;;3.60;1.42;;;10.60;82.00;;;;;;2088262;28;20021;-70
2021/05/26 01:39:30;;;;;;;3.03;1.40;;;10.60;81.90;;;;;;2080065;28;20017;-70
2021/05/26 01:40:33;;;;;;;2.17;1.30;;;10.60;83.20;;;;;;2088848;28;20021;-70
2021/05/26 01:41:33;;;;;;;4.75;1.30;;;10.60;82.60;;;;;;2080396;28;20026;-70
2021/05/26 01:42:36;;;;;;;4.47;1.50;;;10.70;82.00;;;;;;2072569;28;20205;-70
2021/05/26 01:43:36;;;;;;;3.63;1.67;;;10.60;81.70;;;;;;2080158;28;20569;-70
2021/05/26 01:44:37;;;;;;;3.08;1.30;;;10.70;81.80;;;;;;2088277;28;20029;-70
2021/05/26 01:46:00;;;;;;;4.07;1.30;;;10.70;81.50;;;;;;2088453;28;20437;-69
2021/05/26 01:47:02;;;;;;;3.83;1.60;;;10.70;81.10;;;;;;2080737;28;20481;-69
2021/05/26 01:48:03;;;;;;;2.58;1.20;;;10.70;81.30;;;;;;2080223;28;20033;-70
2021/05/26 01:49:04;;;;;;;3.20;1.30;;;10.70;81.20;;;;;;2080720;28;20029;-69
2021/05/26 01:50:19;;;;;;;2.55;1.30;;;10.70;80.10;;;;;;2080933;28;20095;-69
2021/05/26 01:51:22;;;;;;;4.03;1.40;;;10.70;80.40;;;;;;2091583;28;20029;-69
2021/05/26 01:52:24;;;;;;;2.20;1.20;;;10.70;80.50;;;;;;2097800;28;20023;-69
2021/05/26 01:53:26;;;;;;;4.25;1.40;;;10.70;81.20;;;;;;2098058;28;20035;-69
2021/05/26 01:54:28;;;;;;;7.53;1.30;;;10.70;81.00;;;;;;2090463;28;20406;-70
2021/05/26 01:55:29;;;;;;;4.13;1.33;;;10.70;81.30;;;;;;2089627;28;20075;-71
2021/05/26 01:56:33;;;;;;;4.93;1.65;;;10.70;81.00;;;;;;2088968;28;20100;-69
2021/05/26 01:57:41;;;;;;;2.33;1.20;;;10.70;81.10;;;;;;2081240;28;20640;-69
2021/05/26 01:58:42;;;;;;;2.88;1.48;;;10.70;81.40;;;;;;2088140;28;20031;-69
2021/05/26 01:59:44;;;;;;;3.72;1.35;;;10.60;81.40;;;;;;2080094;28;20053;-69
2021/05/26 02:00:50;;;;;;;3.95;1.30;;;10.60;81.60;;;;;;2080703;28;20036;-69
2021/05/26 02:01:51;;;;;;;3.30;1.23;;;10.50;82.70;;;;;;2088360;28;20013;-69
2021/05/26 02:02:54;;;;;;;2.67;1.25;;;10.50;82.40;;;;;;2097080;28;20390;-70
2021/05/26 02:03:56;;;;;;;5.65;1.30;;;10.50;82.70;;;;;;2097070;28;20040;-69
2021/05/26 02:04:56;;;;;;;2.70;1.50;;;10.40;82.90;;;;;;2097177;28;20523;-70
2021/05/26 02:05:57;;;;;;;2.97;1.40;;;10.40;82.50;;;;;;2087996;28;20053;-69
2021/05/26 02:07:07;;;;;;;1.73;1.30;;;10.40;82.50;;;;;;2085023;28;20444;-69
2021/05/26 02:08:08;;;;;;;5.22;1.40;;;10.30;82.60;;;;;;2096902;28;20035;-70
2021/05/26 02:09:08;;;;;;;2.65;1.33;;;10.30;82.80;;;;;;2097014;28;20479;-69
2021/05/26 02:10:13;;;;;;;4.53;1.50;;;10.30;82.80;;;;;;2088207;28;20021;-69
2021/05/26 02:12:36;;;;;;;4.65;1.40;;;10.20;82.70;;;;;;2091063;28;20021;-69
2021/05/26 02:13:37;;;;;;;5.40;1.70;;;10.20;82.80;;;;;;2088210;28;20047;-70
2021/05/26 02:14:39;;;;;;;5.63;1.80;;;10.20;83.10;;;;;;2080040;28;20029;-69
2021/05/26 02:15:40;;;;;;;3.47;1.42;;;10.20;83.60;;;;;;2088226;28;20024;-70
2021/05/26 02:16:41;;;;;;;3.20;1.40;;;10.20;84.20;;;;;;2087763;28;20029;-71
2021/05/26 02:17:42;;;;;;;2.72;1.35;;;10.10;84.70;;;;;;2079886;28;20049;-72
2021/05/26 02:18:43;;;;;;;3.13;1.30;;;10.10;85.10;;;;;;2088327;28;20101;-69
2021/05/26 02:19:44;;;;;;;2.17;1.20;;;10.10;85.50;;;;;;2097195;28;20063;-69
2021/05/26 02:20:44;;;;;;;2.45;1.20;;;10.00;85.80;;;;;;2088093;28;20091;-70
2021/05/26 02:21:47;;;;;;;2.17;1.25;;;10.00;86.20;;;;;;2080021;28;20028;-70
2021/05/26 02:22:48;;;;;;;1.77;1.10;;;10.00;86.40;;;;;;2079905;28;20021;-70
2021/05/26 02:23:49;;;;;;;3.20;1.40;;;9.90;86.80;;;;;;2079860;28;20102;-71
2021/05/26 02:24:51;;;;;;;2.47;1.40;;;9.90;87.30;;;;;;2079967;28;20645;-71
2021/05/26 02:25:52;;;;;;;4.00;1.50;;;9.90;87.50;;;;;;2079755;28;20118;-71
2021/05/26 02:26:53;;;;;;;4.10;1.50;;;9.80;86.30;;;;;;2087724;28;20021;-70
2021/05/26 02:27:54;;;;;;;3.38;1.30;;;9.80;86.30;;;;;;2088102;28;20040;-71
2021/05/26 02:28:56;;;;;;;2.28;1.30;;;9.80;86.70;;;;;;2096992;28;20103;-71
2021/05/26 02:30:00;;;;;;;2.60;1.20;;;9.80;87.00;;;;;;2087940;28;20120;-72
2021/05/26 02:31:00;;;;;;;1.92;1.10;;;9.70;87.20;;;;;;2088117;28;20029;-72
2021/05/26 02:32:04;;;;;;;2.42;1.38;;;9.70;87.30;;;;;;2079656;28;20495;-70
2021/05/26 02:33:15;;;;;;;1.88;1.20;;;9.70;87.50;;;;;;2074820;28;20062;-70
2021/05/26 02:34:17;;;;;;;2.38;1.40;;;9.70;87.70;;;;;;2079870;28;20049;-71
2021/05/26 02:35:18;;;;;;;3.92;1.48;;;9.60;88.10;;;;;;2088093;28;20014;-70
2021/05/26 02:36:19;;;;;;;2.63;1.42;;;9.60;88.40;;;;;;2087671;28;20070;-70
2021/05/26 02:37:23;;;;;;;2.70;1.30;;;9.60;89.00;;;;;;2081252;28;20095;-71
2021/05/26 02:38:26;;;;;;;2.72;1.48;;;9.60;89.00;;;;;;2080189;28;20026;-71
2021/05/26 02:39:27;;;;;;;1.48;1.10;;;9.60;89.10;;;;;;2088395;28;20079;-71
2021/05/26 02:40:28;;;;;;;3.05;1.30;;;9.50;89.10;;;;;;2096908;28;20036;-71
2021/05/26 02:41:34;;;;;;;2.78;1.30;;;9.50;89.30;;;;;;2096973;28;20035;-71
2021/05/26 02:42:34;;;;;;;2.00;1.40;;;9.50;89.40;;;;;;2097007;28;20507;-70
2021/05/26 02:43:36;;;;;;;2.05;1.40;;;9.50;89.60;;;;;;2088067;28;20041;-70
2021/05/26 02:44:37;;;;;;;2.92;1.50;;;9.50;89.80;;;;;;2087899;28;20119;-71
2021/05/26 02:45:38;;;;;;;3.05;1.52;;;9.40;90.10;;;;;;2096928;28;20035;-71
2021/05/26 02:46:40;;;;;;;2.00;1.30;;;9.40;90.20;;;;;;2087594;28;20025;-70
2021/05/26 02:47:41;;;;;;;2.65;1.38;;;9.40;90.30;;;;;;2079671;28;20619;-70
2021/05/26 02:48:42;;;;;;;2.90;1.30;;;9.40;90.50;;;;;;2079831;28;20038;-70
2021/05/26 02:49:42;;;;;;;2.72;1.40;;;9.40;90.50;;;;;;2088034;28;20032;-70
2021/05/26 02:50:45;;;;;;;2.58;1.38;;;9.40;90.60;;;;;;2097008;28;20498;-71
2021/05/26 02:51:48;;;;;;;3.38;1.33;;;9.30;90.60;;;;;;2087931;28;20459;-71
2021/05/26 02:52:50;;;;;;;4.65;1.52;;;9.30;90.40;;;;;;2088044;28;20029;-72
2021/05/26 02:53:52;;;;;;;3.10;1.50;;;9.40;90.10;;;;;;2087930;28;20017;-72
2021/05/26 02:54:54;;;;;;;2.40;1.52;;;9.40;90.10;;;;;;2088172;28;20048;-71
2021/05/26 02:55:54;;;;;;;2.85;1.50;;;9.50;90.10;;;;;;2096815;28;20028;-71
2021/05/26 02:57:10;;;;;;;3.45;1.40;;;9.50;90.00;;;;;;2096967;28;20059;-71
2021/05/26 02:58:31;;;;;;;;;;;9.50;89.20;;;;;;2096956;28;20090;-70
2021/05/26 02:59:51;;;;;;;2.50;1.48;;;9.60;88.90;;;;;;2096838;28;19908;-71
2021/05/26 03:01:02;;;;;;;;;;;9.60;89.20;;;;;;2088569;28;20025;-71
2021/05/26 03:02:22;;;;;;;3.20;1.40;;;9.60;89.00;;;;;;2082350;28;20377;-72
2021/05/26 03:03:28;;;;;;;2.47;1.50;;;9.60;89.10;;;;;;2088083;28;20025;-72
2021/05/26 03:04:34;;;;;;;2.70;1.20;;;9.60;89.40;;;;;;2072842;28;20054;-72
2021/05/26 03:05:36;;;;;;;2.65;1.40;;;9.60;89.50;;;;;;2085947;28;20018;-71
2021/05/26 03:06:37;;;;;;;1.95;1.52;;;9.60;89.60;;;;;;2101126;28;20012;-70
2021/05/26 03:07:39;;;;;;;2.47;1.50;;;9.60;89.40;;;;;;2079068;28;20464;-71
2021/05/26 03:08:40;;;;;;;3.35;1.73;;;9.60;90.00;;;;;;2080315;28;20502;-71
2021/05/26 03:09:41;;;;;;;2.90;1.60;;;9.60;89.40;;;;;;2088190;28;20118;-72
2021/05/26 03:10:41;;;;;;;4.10;1.50;;;9.60;90.00;;;;;;2088038;28;20020;-71
2021/05/26 03:12:05;;;;;;;3.90;1.40;;;9.60;89.80;;;;;;2088030;28;20865;-72
2021/05/26 03:13:13;;;;;;;5.35;1.50;;;9.60;89.90;;;;;;2089025;28;20029;-71
2021/05/26 03:14:14;;;;;;;2.35;1.30;;;9.50;90.00;;;;;;2096769;28;20016;-71
2021/05/26 03:15:19;;;;;;;3.38;1.50;;;9.60;90.10;;;;;;2087996;28;20033;-72
2021/05/26 03:16:20;;;;;;;2.45;1.67;;;9.60;90.10;;;;;;2087874;28;20022;-71
2021/05/26 03:17:23;;;;;;;3.13;1.35;;;9.60;90.10;;;;;;2097029;28;20028;-71
2021/05/26 03:18:24;;;;;;;2.38;1.35;;;9.60;90.00;;;;;;2096829;28;20487;-71
2021/05/26 03:19:27;;;;;;;4.07;1.50;;;9.70;90.00;;;;;;2097117;28;20032;-71
2021/05/26 03:20:41;;;;;;;3.33;1.60;;;9.70;89.80;;;;;;2087917;28;20499;-71
2021/05/26 03:21:53;;;;;;;1.90;1.50;;;9.80;89.70;;;;;;2081028;28;20037;-71
2021/05/26 03:23:13;;;;;;;1.73;1.55;;;9.90;89.80;;;;;;2090683;28;20656;-72
2021/05/26 03:24:32;;;;;;;4.28;1.40;;;9.90;89.50;;;;;;2097093;28;20036;-71
2021/05/26 03:25:33;;;;;;;3.85;1.40;;;10.00;89.30;;;;;;2098468;28;20025;-72
2021/05/26 03:26:41;;;;;;;2.55;1.50;;;10.00;89.20;;;;;;2098101;28;20065;-71
2021/05/26 03:27:42;;;;;;;2.05;1.40;;;10.00;89.20;;;;;;2081292;28;20029;-71
2021/05/26 03:28:43;;;;;;;1.77;1.45;;;10.10;89.00;;;;;;2081332;28;20014;-71
2021/05/26 03:29:43;;;;;;;2.63;1.58;;;10.20;88.80;;;;;;2098637;28;20035;-72
2021/05/26 03:30:45;;;;;;;3.75;1.58;;;10.20;88.80;;;;;;2098481;28;20119;-71
2021/05/26 03:31:46;;;;;;;2.72;1.67;;;10.30;88.30;;;;;;2098315;28;20025;-72
2021/05/26 03:32:47;;;;;;;3.58;1.60;;;10.30;88.00;;;;;;2098701;28;20024;-72
2021/05/26 03:33:48;;;;;;;1.70;1.33;;;10.40;87.90;;;;;;2098452;28;20032;-70
2021/05/26 03:34:48;;;;;;;3.58;1.70;;;10.40;87.30;;;;;;2098964;28;20047;-69
2021/05/26 03:35:49;;;;;;;4.90;1.90;;;10.50;86.90;;;;;;2098968;28;20027;-70
2021/05/26 03:36:50;;;;;;;3.20;1.60;;;10.50;86.50;;;;;;2095790;28;20072;-69
2021/05/26 03:37:52;;;;;;;2.60;1.52;;;10.60;86.40;;;;;;2097937;28;20435;-71
2021/05/26 03:38:55;;;;;;;3.35;1.70;;;10.60;85.80;;;;;;2089985;28;20036;-72
2021/05/26 03:39:56;;;;;;;1.65;1.30;;;10.70;85.40;;;;;;2089954;28;20099;-73
2021/05/26 03:40:57;;;;;;;1.63;1.38;;;10.70;85.40;;;;;;2098780;28;20052;-72
2021/05/26 03:42:05;;;;;;;2.13;1.50;;;10.80;85.10;;;;;;2081264;28;20433;-69
2021/05/26 03:43:06;;;;;;;2.13;1.50;;;10.80;84.60;;;;;;2082303;28;20105;-68
2021/05/26 03:44:14;;;;;;;2.15;1.50;;;10.80;84.30;;;;;;2098246;28;20024;-71
2021/05/26 03:45:15;;;;;;;2.95;1.60;;;10.90;84.30;;;;;;2089366;28;20036;-70
2021/05/26 03:46:24;;;;;;;3.38;1.40;;;10.90;83.70;;;;;;2081891;28;20048;-70
2021/05/26 03:47:26;;;;;;;3.78;1.45;;;11.00;83.80;;;;;;2089424;28;20437;-70
2021/05/26 03:48:31;;;;;;;3.92;1.40;;;11.00;83.90;;;;;;2081572;28;20025;-71
2021/05/26 03:49:35;;;;;;;2.95;1.50;;;11.00;83.80;;;;;;2081458;28;20488;-70
2021/05/26 03:50:40;;;;;;;2.42;1.48;;;11.00;83.70;;;;;;2081674;28;20393;-70
2021/05/26 03:51:43;;;;;;;1.35;1.23;;;11.10;83.40;;;;;;2081386;28;20026;-71
2021/05/26 03:52:46;;;;;;;4.03;1.52;;;11.10;83.10;;;;;;2081336;28;20119;-71
2021/05/26 03:53:47;;;;;;;2.92;1.40;;;11.10;81.80;;;;;;2081686;28;20120;-71
2021/05/26 03:54:54;;;;;;;4.80;1.40;;;11.10;81.30;;;;;;2081817;28;20034;-73
2021/05/26 03:55:55;;;;;;;3.17;1.40;;;11.10;81.00;;;;;;2081052;28;20026;-70
2021/05/26 03:57:07;;;;;;;3.22;1.38;;;11.10;80.80;;;;;;2091608;28;20404;-71
2021/05/26 03:58:08;;;;;;;4.28;1.38;;;11.20;80.90;;;;;;2098718;28;20118;-71
2021/05/26 03:59:09;;;;;;;3.45;1.30;;;11.20;81.30;;;;;;2082369;28;20772;-71
2021/05/26 04:00:15;;;;;;;3.83;1.50;;;11.30;81.40;;;;;;2084278;28;20025;-71
2021/05/26 04:01:32;;;;;;;2.65;1.42;;;11.30;81.20;;;;;;2089713;28;20029;-71
2021/05/26 04:02:35;;;;;;;2.72;1.52;;;11.30;81.00;;;;;;2089727;28;20447;-71
2021/05/26 04:03:37;;;;;;;3.70;1.33;;;11.30;80.60;;;;;;2089309;28;20033;-71
2021/05/26 04:04:39;;;;;;;2.17;1.30;;;11.30;79.50;;;;;;2089369;28;20041;-71
2021/05/26 04:05:41;;;;;;;3.38;1.52;;;11.30;79.70;;;;;;2089564;28;20021;-71
2021/05/26 04:06:42;;;;;;;4.90;1.52;;;11.40;79.30;;;;;;2080658;28;20128;-70
2021/05/26 04:07:44;;;;;;;1.90;1.35;;;11.30;77.40;;;;;;2088455;28;20068;-71
2021/05/26 04:08:45;;;;;;;5.68;1.50;;;11.40;77.40;;;;;;2081403;28;20053;-71
2021/05/26 04:09:46;;;;;;;3.13;1.50;;;11.40;77.50;;;;;;2088747;28;20087;-71
2021/05/26 04:10:48;;;;;;;4.47;1.50;;;11.60;77.80;;;;;;2089801;28;20021;-71
2021/05/26 04:12:15;;;;;;;3.05;1.40;;;11.90;77.80;;;;;;2066548;28;20037;-71
2021/05/26 04:13:34;;;;;;;2.75;1.40;;;12.30;76.00;;;;;;2081265;28;20108;-71
2021/05/26 04:14:48;;;;;;;2.28;1.20;;;12.60;74.40;;;;;;2074636;28;20033;-71
2021/05/26 04:15:57;;;;;;;3.45;1.40;;;12.60;72.40;;;;;;2082485;28;20412;-71
2021/05/26 04:17:04;;;;;;;2.10;1.20;;;12.70;72.30;;;;;;2090011;28;20028;-70
2021/05/26 04:18:16;;;;;;;3.42;1.40;;;12.70;72.50;;;;;;2080786;28;20041;-70
2021/05/26 04:19:20;;;;;;;3.10;1.50;;;12.70;72.60;;;;;;2081278;28;20456;-70
2021/05/26 04:20:24;;;;;;;3.30;1.40;;;12.60;72.90;;;;;;2080848;28;20108;-70
2021/05/26 04:21:26;;;;;;;2.63;1.42;;;12.60;73.40;;;;;;2081209;28;20037;-70
2021/05/26 04:22:27;;;;;;;3.38;1.40;;;12.60;73.90;;;;;;2089817;28;20025;-70
2021/05/26 04:23:32;;;;;;;2.83;1.48;;;12.60;74.20;;;;;;2080896;28;20080;-70
2021/05/26 04:24:36;;;;;;;2.13;1.30;;;12.50;74.40;;;;;;2081254;28;20025;-70
2021/05/26 04:25:37;;;;;;;2.70;1.30;;;12.50;74.70;;;;;;2089801;28;20033;-70
2021/05/26 04:26:37;;;;;;;2.85;1.45;;;12.40;74.40;;;;;;2089447;28;20029;-70
2021/05/26 04:27:42;;;;;;;3.05;1.63;;;12.40;74.60;;;;;;2080940;28;20029;-70
2021/05/26 04:28:45;;;;;;;3.45;1.50;;;12.40;74.80;;;;;;2073226;28;20038;-70
2021/05/26 04:29:47;;;;;;;3.47;1.80;;;12.40;74.90;;;;;;2084790;28;20028;-69
2021/05/26 04:30:48;;;;;;;4.47;1.80;;;12.40;74.90;;;;;;2094577;28;20029;-70
2021/05/26 04:31:50;;;;;;;4.05;1.63;;;12.30;74.40;;;;;;2083559;28;20068;-70
2021/05/26 04:32:52;;;;;;;4.63;2.17;;;12.30;74.30;;;;;;2081462;28;20022;-69
2021/05/26 04:33:53;;;;;;;4.28;1.60;;;12.30;74.70;;;;;;2092329;28;20068;-69
2021/05/26 04:34:54;;;;;;;2.95;1.65;;;12.30;74.90;;;;;;2092912;28;20068;-70
2021/05/26 04:35:54;;;;;;;2.85;1.80;;;12.30;75.00;;;;;;2093405;28;20013;-71
2021/05/26 04:36:55;;;;;;;11.55;8.20;;;12.40;75.10;;;;;;2094033;28;20109;-71
2021/05/26 04:37:55;;;;;;;15.20;10.13;;;12.40;75.10;;;;;;2093975;28;20057;-69
2021/05/26 04:38:56;;;;;;;17.70;11.70;;;12.40;74.70;;;;;;2078517;28;20095;-69
2021/05/26 04:39:57;;;;;;;14.88;10.23;;;12.50;74.50;;;;;;2091847;28;20073;-70
2021/05/26 04:40:59;;;;;;;13.75;9.40;;;12.50;74.30;;;;;;2090060;28;20500;-70
2021/05/26 04:42:00;;;;;;;10.02;6.35;;;12.50;74.10;;;;;;2089824;28;20029;-70
2021/05/26 04:43:00;;;;;;;8.32;5.72;;;12.50;73.80;;;;;;2080966;28;20036;-70
2021/05/26 04:44:01;;;;;;;6.25;4.10;;;12.50;73.70;;;;;;2080746;28;20499;-71
2021/05/26 04:45:02;;;;;;;5.18;3.50;;;12.50;73.60;;;;;;2080733;28;20120;-70
2021/05/26 04:46:04;;;;;;;4.95;3.20;;;12.50;73.60;;;;;;2080335;28;20064;-69
2021/05/26 04:47:05;;;;;;;5.85;3.10;;;12.50;73.90;;;;;;2089379;28;20116;-70
2021/05/26 04:48:06;;;;;;;5.70;2.90;;;12.50;74.30;;;;;;2089462;28;20029;-70
2021/05/26 04:49:06;;;;;;;4.18;2.00;;;12.50;74.50;;;;;;2089447;28;20500;-70
2021/05/26 04:50:07;;;;;;;8.18;2.95;;;12.40;73.60;;;;;;2089448;28;20025;-70
2021/05/26 04:51:08;;;;;;;3.97;2.55;;;12.40;73.80;;;;;;2089415;28;20484;-70
2021/05/26 04:52:09;;;;;;;3.35;2.10;;;12.50;73.90;;;;;;2080605;28;20040;-70
2021/05/26 04:53:10;;;;;;;4.20;2.08;;;12.50;73.60;;;;;;2080594;28;20099;-71
2021/05/26 04:54:10;;;;;;;3.10;2.00;;;12.50;73.50;;;;;;2089507;28;20051;-71
2021/05/26 04:55:11;;;;;;;4.72;2.00;;;12.50;73.70;;;;;;2089701;28;20025;-69
2021/05/26 04:56:12;;;;;;;2.13;1.45;;;12.50;72.80;;;;;;2089104;28;20557;-72
2021/05/26 04:57:13;;;;;;;2.70;1.80;;;12.60;72.70;;;;;;2089384;28;20044;-69
2021/05/26 04:58:14;;;;;;;3.72;1.88;;;12.60;72.50;;;;;;2089388;28;20060;-71
2021/05/26 04:59:14;;;;;;;2.97;1.80;;;12.60;72.50;;;;;;2080456;28;20620;-69
2021/05/26 05:00:16;;;;;;;2.72;1.55;;;12.60;72.70;;;;;;2080913;28;20057;-69
2021/05/26 05:01:17;;;;;;;4.03;1.98;;;12.60;73.10;;;;;;2089448;28;20032;-70
2021/05/26 05:02:18;;;;;;;3.65;2.40;;;12.70;73.00;;;;;;2080623;28;20033;-70
2021/05/26 05:03:19;;;;;;;7.60;4.30;;;12.70;73.20;;;;;;2080537;28;20029;-70
2021/05/26 05:04:20;;;;;;;5.53;3.83;;;12.70;73.30;;;;;;2089225;28;20481;-70
2021/05/26 05:05:21;;;;;;;5.68;4.00;;;12.70;73.30;;;;;;2080584;28;20111;-71
2021/05/26 05:06:22;;;;;;;6.03;2.88;;;12.80;73.40;;;;;;2080349;28;20037;-70
2021/05/26 05:07:22;;;;;;;7.07;3.30;;;12.80;73.40;;;;;;2094112;28;20495;-70
2021/05/26 05:08:23;;;;;;;4.57;3.00;;;12.70;73.60;;;;;;2097622;28;20021;-71
2021/05/26 05:09:23;;;;;;;4.68;2.50;;;12.80;73.80;;;;;;2088716;28;20365;-70
2021/05/26 05:10:25;;;;;;;6.55;2.78;;;12.80;73.80;;;;;;2089181;28;20037;-70
2021/05/26 05:11:25;;;;;;;3.33;2.40;;;12.90;73.90;;;;;;2097863;28;20063;-71
2021/05/26 05:12:26;;;;;;;4.45;2.42;;;12.90;73.80;;;;;;2097744;28;20020;-70
2021/05/26 05:13:26;;;;;;;5.18;2.92;;;13.00;73.60;;;;;;2097863;28;20024;-70
2021/05/26 05:14:27;;;;;;;6.18;3.45;;;13.10;73.40;;;;;;2097774;28;20031;-71
2021/05/26 05:15:28;;;;;;;5.45;3.70;;;13.10;73.10;;;;;;2097732;28;20387;-70
2021/05/26 05:16:29;;;;;;;7.95;5.93;;;13.20;72.70;;;;;;2097438;28;20032;-69
2021/05/26 05:17:29;;;;;;;8.82;6.00;;;13.30;72.30;;;;;;2097662;28;20035;-70
2021/05/26 05:18:30;;;;;;;7.10;5.35;;;13.40;72.20;;;;;;2097627;28;20021;-71
2021/05/26 05:19:31;;;;;;;7.45;4.90;;;13.50;72.20;;;;;;2097397;28;20126;-69
2021/05/26 05:20:32;;;;;;;6.85;4.10;;;13.60;71.60;;;;;;2097465;28;20150;-70
2021/05/26 05:21:32;;;;;;;7.93;4.00;;;13.80;71.00;;;;;;2097808;28;20035;-70
2021/05/26 05:22:33;;;;;;;6.35;3.75;;;13.80;70.10;;;;;;2097566;28;20028;-70
2021/05/26 05:23:34;;;;;;;5.97;3.15;;;13.90;69.80;;;;;;2097571;28;20551;-70
2021/05/26 05:24:35;;;;;;;6.50;2.90;;;13.90;69.40;;;;;;2099552;28;20023;-70
2021/05/26 05:25:36;;;;;;;7.57;3.00;;;14.00;69.00;;;;;;2095460;28;20104;-70
2021/05/26 05:26:37;;;;;;;6.28;2.60;;;14.00;68.30;;;;;;2095024;28;20083;-71
2021/05/26 05:27:37;;;;;;;4.88;2.50;;;14.10;67.30;;;;;;2101469;28;20025;-70
2021/05/26 05:28:38;;;;;;;4.18;2.35;;;14.20;67.30;;;;;;2098191;28;20016;-70